createdAt,value
2022-12-08T00:00:16.314Z,30.036
2022-12-08T00:05:16.237Z,30.036
2022-12-08T00:10:47.277Z,30.036
2022-12-08T00:15:16.490Z,30.038
2022-12-08T00:20:16.304Z,30.038
2022-12-08T00:25:16.343Z,30.042
2022-12-08T00:30:16.277Z,30.040
2022-12-08T00:35:16.419Z,30.035
2022-12-08T00:40:16.311Z,30.034
2022-12-08T00:45:16.415Z,30.033
2022-12-08T00:50:16.424Z,30.028
2022-12-08T00:55:16.481Z,30.030
2022-12-08T01:00:16.410Z,30.027
2022-12-08T01:05:16.449Z,30.021
2022-12-08T01:10:16.525Z,30.019
2022-12-08T01:15:16.494Z,30.016
2022-12-08T01:20:16.521Z,30.014
2022-12-08T01:25:16.621Z,30.016
2022-12-08T01:30:16.634Z,30.016
2022-12-08T01:35:16.386Z,30.017
2022-12-08T01:40:16.567Z,30.015
2022-12-08T01:45:16.487Z,30.018
2022-12-08T01:50:16.671Z,30.016
2022-12-08T01:55:16.485Z,30.017
2022-12-08T02:00:16.421Z,30.021
2022-12-08T02:05:16.646Z,30.023
2022-12-08T02:10:16.500Z,30.027
2022-12-08T02:15:16.504Z,30.025
2022-12-08T02:20:16.547Z,30.024
2022-12-08T02:25:16.608Z,30.023
2022-12-08T02:30:16.493Z,30.027
2022-12-08T02:35:16.595Z,30.024
2022-12-08T02:40:16.551Z,30.024
2022-12-08T02:45:16.629Z,30.019
2022-12-08T02:50:16.646Z,30.017
2022-12-08T02:55:16.537Z,30.017
2022-12-08T03:00:16.723Z,30.012
2022-12-08T03:05:16.672Z,30.008
2022-12-08T03:10:16.814Z,30.005
2022-12-08T03:15:16.738Z,30.005
2022-12-08T03:20:16.608Z,30.005
2022-12-08T03:25:16.860Z,30.005
2022-12-08T03:30:16.674Z,30.002
2022-12-08T03:35:16.683Z,29.999
2022-12-08T03:40:16.737Z,29.996
2022-12-08T03:45:16.788Z,29.994
2022-12-08T03:50:16.660Z,29.995
2022-12-08T03:55:16.600Z,29.995
2022-12-08T04:00:16.773Z,29.992
2022-12-08T04:05:16.975Z,29.995
2022-12-08T04:10:16.783Z,29.998
2022-12-08T04:15:16.865Z,29.999
2022-12-08T04:20:16.797Z,30.002
2022-12-08T04:25:16.868Z,29.998
2022-12-08T04:30:16.802Z,30.000
2022-12-08T04:35:16.793Z,30.000
2022-12-08T04:40:16.858Z,30.005
2022-12-08T04:45:16.918Z,29.999
2022-12-08T04:50:16.902Z,29.999
2022-12-08T04:55:16.794Z,30.000
2022-12-08T05:00:15.928Z,30.000
2022-12-08T05:05:15.982Z,30.001
2022-12-08T05:10:15.900Z,30.001
2022-12-08T05:15:15.885Z,30.002
2022-12-08T05:20:15.974Z,29.998
2022-12-08T05:25:15.976Z,30.004
2022-12-08T05:30:15.903Z,30.004
2022-12-08T05:35:16.086Z,30.004
2022-12-08T05:40:15.906Z,30.005
2022-12-08T05:45:16.008Z,30.011
2022-12-08T05:50:15.939Z,30.011
2022-12-08T05:55:16.000Z,30.017
2022-12-08T06:00:15.920Z,30.018
2022-12-08T06:05:15.977Z,30.022
2022-12-08T06:10:15.994Z,30.020
2022-12-08T06:15:16.042Z,30.023
2022-12-08T06:20:15.990Z,30.026
2022-12-08T06:25:16.030Z,30.028
2022-12-08T06:30:16.313Z,30.031
2022-12-08T06:35:16.023Z,30.035
2022-12-08T06:40:16.075Z,30.036
2022-12-08T06:45:16.161Z,30.039
2022-12-08T06:50:16.007Z,30.038
2022-12-08T06:55:35.551Z,30.042
2022-12-08T07:00:16.058Z,30.046
2022-12-08T07:05:16.104Z,30.043
2022-12-08T07:10:16.074Z,30.044
2022-12-08T07:15:16.154Z,30.044
2022-12-08T07:20:16.113Z,30.045
2022-12-08T07:25:16.141Z,30.045
2022-12-08T07:30:16.099Z,30.051
2022-12-08T07:35:16.175Z,30.051
2022-12-08T07:40:16.224Z,30.051
2022-12-08T07:45:16.157Z,30.052
2022-12-08T07:50:16.178Z,30.055
2022-12-08T07:55:16.087Z,30.054
2022-12-08T08:00:16.282Z,30.056
2022-12-08T08:05:16.179Z,30.056
2022-12-08T08:10:16.262Z,30.056
2022-12-08T08:15:16.227Z,30.054
2022-12-08T08:20:16.391Z,30.056
2022-12-08T08:25:16.257Z,30.056
2022-12-08T08:30:20.313Z,30.059
2022-12-08T08:35:16.276Z,30.061
2022-12-08T08:40:16.260Z,30.062
2022-12-08T08:45:16.302Z,30.062
2022-12-08T08:50:16.524Z,30.062
2022-12-08T08:55:16.321Z,30.066
2022-12-08T09:00:16.383Z,30.062
2022-12-08T09:05:16.510Z,30.062
2022-12-08T09:10:16.312Z,30.064
2022-12-08T09:15:16.353Z,30.063
2022-12-08T09:20:16.378Z,30.064
2022-12-08T09:25:16.339Z,30.068
2022-12-08T09:30:16.407Z,30.067
2022-12-08T09:35:16.398Z,30.064
2022-12-08T09:40:16.829Z,30.066
2022-12-08T09:45:16.563Z,30.069
2022-12-08T09:50:16.377Z,30.072
2022-12-08T09:55:16.349Z,30.077
2022-12-08T10:00:16.487Z,30.077
2022-12-08T10:05:16.517Z,30.078
2022-12-08T10:10:16.482Z,30.078
2022-12-08T10:15:16.492Z,30.075
2022-12-08T10:20:16.674Z,30.083
2022-12-08T10:25:16.529Z,30.089
2022-12-08T10:30:16.519Z,30.087
2022-12-08T10:35:16.575Z,30.089
2022-12-08T10:40:16.563Z,30.095
2022-12-08T10:45:16.563Z,30.100
2022-12-08T10:50:16.595Z,30.105
2022-12-08T10:55:16.515Z,30.108
2022-12-08T11:00:17.031Z,30.110
2022-12-08T11:05:16.654Z,30.111
2022-12-08T11:10:16.597Z,30.114
2022-12-08T11:15:16.589Z,30.117
2022-12-08T11:20:16.686Z,30.118
2022-12-08T11:25:16.552Z,30.118
2022-12-08T11:30:17.067Z,30.117
2022-12-08T11:35:16.645Z,30.118
2022-12-08T11:40:16.988Z,30.120
2022-12-08T11:45:16.750Z,30.118
2022-12-08T11:50:19.516Z,30.120
2022-12-08T11:55:16.612Z,30.121
2022-12-08T12:00:16.772Z,30.121
2022-12-08T12:05:23.578Z,30.121
2022-12-08T12:10:16.636Z,30.122
2022-12-08T12:15:16.783Z,30.124
2022-12-08T12:20:16.681Z,30.124
2022-12-08T12:25:16.745Z,30.127
2022-12-08T12:30:16.823Z,30.129
2022-12-08T12:35:16.719Z,30.130
2022-12-08T12:40:16.740Z,30.131
2022-12-08T12:45:16.755Z,30.129
2022-12-08T12:50:16.748Z,30.132
2022-12-08T12:55:16.866Z,30.129
2022-12-08T13:00:16.841Z,30.134
2022-12-08T13:05:16.789Z,30.133
2022-12-08T13:10:16.780Z,30.135
2022-12-08T13:15:16.918Z,30.136
2022-12-08T13:20:16.847Z,30.136
2022-12-08T13:25:16.833Z,30.136
2022-12-08T13:30:16.872Z,30.137
2022-12-08T13:35:16.919Z,30.137
2022-12-08T13:40:16.896Z,30.135
2022-12-08T13:46:57.529Z,30.141
2022-12-08T13:47:31.486Z,30.141
2022-12-08T13:51:45.431Z,30.142
2022-12-08T13:56:59.365Z,30.143
2022-12-08T13:57:13.984Z,30.143
2022-12-08T14:00:17.026Z,30.146
2022-12-08T14:05:18.969Z,30.149
2022-12-08T14:10:16.975Z,30.148
2022-12-08T14:15:17.442Z,30.154
2022-12-08T14:20:17.003Z,30.150
2022-12-08T14:25:17.012Z,30.151
2022-12-08T14:30:17.009Z,30.149
2022-12-08T14:35:16.991Z,30.151
2022-12-08T14:40:21.131Z,30.152
2022-12-08T14:45:17.048Z,30.152
2022-12-08T14:50:16.932Z,30.150
2022-12-08T14:55:17.036Z,30.152
2022-12-08T15:00:17.077Z,30.149
2022-12-08T15:05:17.195Z,30.151
2022-12-08T15:10:17.076Z,30.150
2022-12-08T15:15:17.087Z,30.145
2022-12-08T15:20:17.159Z,30.143
2022-12-08T15:25:17.112Z,30.142
2022-12-08T15:30:17.099Z,30.142
2022-12-08T15:35:17.051Z,30.144
2022-12-08T15:40:17.286Z,30.143
2022-12-08T15:45:17.099Z,30.142
2022-12-08T15:50:17.098Z,30.137
2022-12-08T15:55:17.087Z,30.132
2022-12-08T16:00:50.033Z,30.124
2022-12-08T16:06:31.070Z,30.124
2022-12-08T16:07:20.447Z,30.124
2022-12-08T16:10:17.352Z,30.127
2022-12-08T16:15:59.879Z,30.122
2022-12-08T16:20:17.179Z,30.122
2022-12-08T16:25:19.896Z,30.121
2022-12-08T16:30:18.109Z,30.126
2022-12-08T16:35:17.510Z,30.131
2022-12-08T16:40:17.328Z,30.134
2022-12-08T16:45:17.201Z,30.132
2022-12-08T16:50:17.245Z,30.132
2022-12-08T16:55:17.219Z,30.128
2022-12-08T17:00:17.319Z,30.128
2022-12-08T17:05:17.490Z,30.126
2022-12-08T17:10:17.263Z,30.125
2022-12-08T17:15:17.255Z,30.124
2022-12-08T17:20:17.386Z,30.123
2022-12-08T17:25:17.300Z,30.122
2022-12-08T17:30:17.292Z,30.124
2022-12-08T17:35:17.587Z,30.127
2022-12-08T17:40:17.420Z,30.127
2022-12-08T17:45:17.355Z,30.124
2022-12-08T17:50:15.547Z,30.122
2022-12-08T17:55:15.368Z,30.120
2022-12-08T18:00:15.834Z,30.122
2022-12-08T18:05:15.479Z,30.122
2022-12-08T18:10:15.416Z,30.125
2022-12-08T18:15:15.576Z,30.122
2022-12-08T18:20:15.603Z,30.122
2022-12-08T18:25:15.435Z,30.118
2022-12-08T18:30:15.485Z,30.114
2022-12-08T18:35:15.490Z,30.114
2022-12-08T18:40:15.629Z,30.116
2022-12-08T18:45:20.765Z,30.120
2022-12-08T18:50:15.515Z,30.122
2022-12-08T18:55:18.685Z,30.124
2022-12-08T19:00:15.618Z,30.126
2022-12-08T19:05:15.526Z,30.127
2022-12-08T19:10:15.676Z,30.128
2022-12-08T19:15:15.806Z,30.123
2022-12-08T19:20:15.595Z,30.121
2022-12-08T19:25:15.670Z,30.124
2022-12-08T19:30:15.559Z,30.129
2022-12-08T19:35:15.636Z,30.135
2022-12-08T19:40:15.653Z,30.135
2022-12-08T19:45:15.733Z,30.145
2022-12-08T19:50:15.677Z,30.145
2022-12-08T19:55:15.565Z,30.145
2022-12-08T20:00:15.672Z,30.148
2022-12-08T20:05:15.651Z,30.153
2022-12-08T20:10:15.724Z,30.150
2022-12-08T20:15:15.958Z,30.150
2022-12-08T20:20:16.207Z,30.151
2022-12-08T20:25:15.994Z,30.153
2022-12-08T20:30:17.427Z,30.152
2022-12-08T20:35:15.716Z,30.152
2022-12-08T20:40:15.953Z,30.151
2022-12-08T20:45:15.724Z,30.151
2022-12-08T20:50:16.030Z,30.155
2022-12-08T20:55:15.788Z,30.155
2022-12-08T21:00:15.878Z,30.161
2022-12-08T21:05:15.901Z,30.158
2022-12-08T21:10:15.909Z,30.160
2022-12-08T21:15:15.860Z,30.159
2022-12-08T21:20:15.965Z,30.161
2022-12-08T21:25:16.017Z,30.161
2022-12-08T21:30:16.248Z,30.161
2022-12-08T21:35:16.070Z,30.160
2022-12-08T21:40:15.998Z,30.165
2022-12-08T21:45:15.898Z,30.164
2022-12-08T21:50:16.130Z,30.165
2022-12-08T21:55:16.102Z,30.168
2022-12-08T22:00:15.908Z,30.173
2022-12-08T22:05:16.128Z,30.174
2022-12-08T22:10:16.184Z,30.173
2022-12-08T22:15:16.114Z,30.172
2022-12-08T22:20:16.016Z,30.171
2022-12-08T22:25:16.139Z,30.170
2022-12-08T22:30:16.316Z,30.167
2022-12-08T22:35:16.022Z,30.173
2022-12-08T22:40:15.997Z,30.173
2022-12-08T22:45:16.049Z,30.171
2022-12-08T22:50:16.112Z,30.171
2022-12-08T22:55:15.955Z,30.174
2022-12-08T23:00:15.937Z,30.171
2022-12-08T23:05:16.314Z,30.173
2022-12-08T23:10:16.106Z,30.174
2022-12-08T23:15:16.158Z,30.176
2022-12-08T23:20:16.058Z,30.175
2022-12-08T23:25:16.223Z,30.176
2022-12-08T23:30:16.053Z,30.178
2022-12-08T23:35:16.136Z,30.179
2022-12-08T23:40:16.236Z,30.182
2022-12-08T23:45:16.309Z,30.185
2022-12-08T23:50:16.132Z,30.186
2022-12-08T23:55:16.088Z,30.191
